createdAt,value
2022-07-31T00:00:28.392Z,59.40
2022-07-31T00:01:31.157Z,59.79
2022-07-31T00:02:33.335Z,59.27
2022-07-31T00:03:36.220Z,58.94
2022-07-31T00:04:38.562Z,59.24
2022-07-31T00:05:41.911Z,59.19
2022-07-31T00:06:44.952Z,59.41
2022-07-31T00:07:47.019Z,58.89
2022-07-31T00:08:49.376Z,58.67
2022-07-31T00:09:53.641Z,58.55
2022-07-31T00:10:56.153Z,60.17
2022-07-31T00:11:58.588Z,58.71
2022-07-31T00:13:01.486Z,58.71
2022-07-31T00:14:03.574Z,58.72
2022-07-31T00:15:08.403Z,59.12
2022-07-31T00:16:11.346Z,58.47
2022-07-31T00:17:13.417Z,58.17
2022-07-31T00:18:15.552Z,58.48
2022-07-31T00:19:17.816Z,58.16
2022-07-31T00:20:21.610Z,58.42
2022-07-31T00:21:23.680Z,59.32
2022-07-31T00:22:26.329Z,58.23
2022-07-31T00:23:29.197Z,58.72
2022-07-31T00:24:32.431Z,59.87
2022-07-31T00:25:35.262Z,58.63
2022-07-31T00:26:37.809Z,58.23
2022-07-31T00:27:41.353Z,58.09
2022-07-31T00:28:43.666Z,58.49
2022-07-31T00:29:45.732Z,58.51
2022-07-31T00:30:48.099Z,58.33
2022-07-31T00:31:50.667Z,59.27
2022-07-31T00:32:52.835Z,58.42
2022-07-31T00:33:55.016Z,58.30
2022-07-31T00:34:57.134Z,57.87
2022-07-31T00:35:59.392Z,58.25
2022-07-31T00:37:03.248Z,58.82
2022-07-31T00:38:26.138Z,58.35
2022-07-31T00:39:10.880Z,58.94
2022-07-31T00:40:16.011Z,59.98
2022-07-31T00:41:18.321Z,59.17
2022-07-31T00:42:24.241Z,59.07
2022-07-31T00:43:27.415Z,59.67
2022-07-31T00:44:31.544Z,58.82
2022-07-31T00:45:34.472Z,58.24
2022-07-31T00:46:41.142Z,58.45
2022-07-31T00:47:44.434Z,58.36
2022-07-31T00:48:46.619Z,58.47
2022-07-31T00:49:49.475Z,58.58
2022-07-31T00:50:52.138Z,58.84
2022-07-31T00:51:54.091Z,58.79
2022-07-31T00:52:57.265Z,58.40
2022-07-31T00:53:59.579Z,58.86
2022-07-31T00:55:01.937Z,58.23
2022-07-31T00:56:05.470Z,58.91
2022-07-31T00:57:07.805Z,58.47
2022-07-31T00:58:09.954Z,58.63
2022-07-31T00:59:12.006Z,58.50
2022-07-31T01:00:15.487Z,58.58
2022-07-31T01:01:19.471Z,58.50
2022-07-31T01:02:21.991Z,58.75
2022-07-31T01:03:24.180Z,58.64
2022-07-31T01:04:26.754Z,59.12
2022-07-31T01:05:30.278Z,58.90
2022-07-31T01:06:32.801Z,59.84
2022-07-31T01:07:37.192Z,59.15
2022-07-31T01:08:39.778Z,60.03
2022-07-31T01:09:41.915Z,60.31
2022-07-31T01:11:03.322Z,58.95
2022-07-31T01:12:13.464Z,59.96
2022-07-31T01:13:19.295Z,58.90
2022-07-31T01:14:25.101Z,59.46
2022-07-31T01:15:29.045Z,58.96
2022-07-31T01:16:35.713Z,59.38
2022-07-31T01:17:41.049Z,59.49
2022-07-31T01:18:44.471Z,60.59
2022-07-31T01:19:51.120Z,59.09
2022-07-31T01:20:56.747Z,59.68
2022-07-31T01:22:33.630Z,60.50
2022-07-31T01:23:42.621Z,60.51
2022-07-31T01:24:57.679Z,60.43
2022-07-31T01:26:21.584Z,59.46
2022-07-31T01:27:51.885Z,60.04
2022-07-31T01:29:06.719Z,60.13
2022-07-31T01:30:10.629Z,60.03
2022-07-31T01:31:27.619Z,60.25
2022-07-31T01:32:27.766Z,60.14
2022-07-31T01:33:35.519Z,60.55
2022-07-31T01:34:51.763Z,59.39
2022-07-31T01:35:57.750Z,60.41
2022-07-31T01:37:40.054Z,59.94
2022-07-31T01:38:45.915Z,60.10
2022-07-31T01:39:52.770Z,59.29
2022-07-31T01:42:15.591Z,59.77
2022-07-31T01:43:25.170Z,60.05
2022-07-31T01:44:29.557Z,60.70
2022-07-31T01:45:33.159Z,60.46
2022-07-31T01:46:41.711Z,60.73
2022-07-31T01:47:43.658Z,59.90
2022-07-31T01:48:47.952Z,60.30
2022-07-31T01:49:54.270Z,59.67
2022-07-31T01:50:59.838Z,59.96
2022-07-31T01:52:04.594Z,61.17
2022-07-31T01:53:09.713Z,60.20
2022-07-31T01:54:15.001Z,59.77
2022-07-31T01:55:17.700Z,60.18
2022-07-31T01:56:22.471Z,60.84
2022-07-31T01:57:26.860Z,60.07
2022-07-31T01:58:33.846Z,60.27
2022-07-31T01:59:42.550Z,60.91
2022-07-31T02:00:48.797Z,60.75
2022-07-31T02:01:52.673Z,60.70
2022-07-31T02:02:56.400Z,61.43
2022-07-31T02:04:01.823Z,61.00
2022-07-31T02:05:07.255Z,61.23
2022-07-31T02:06:14.386Z,60.99
2022-07-31T02:07:18.459Z,60.53
2022-07-31T02:08:22.325Z,60.93
2022-07-31T02:09:28.278Z,60.56
2022-07-31T02:10:31.857Z,60.73
2022-07-31T02:11:35.810Z,61.15
2022-07-31T02:12:41.431Z,61.20
2022-07-31T02:13:47.091Z,61.26
2022-07-31T02:14:51.136Z,59.84
2022-07-31T02:15:56.001Z,59.51
2022-07-31T02:16:59.771Z,61.00
2022-07-31T02:18:04.878Z,60.34
2022-07-31T02:19:10.761Z,60.64
2022-07-31T02:20:16.199Z,60.46
2022-07-31T02:21:18.863Z,60.56
2022-07-31T02:22:21.446Z,60.56
2022-07-31T02:23:25.925Z,59.94
2022-07-31T02:24:29.354Z,60.16
2022-07-31T02:25:34.656Z,60.52
2022-07-31T02:26:39.680Z,60.00
2022-07-31T02:27:53.921Z,60.00
2022-07-31T02:28:50.730Z,60.41
2022-07-31T02:29:56.568Z,59.82
2022-07-31T02:31:03.118Z,60.14
2022-07-31T02:32:08.077Z,60.34
2022-07-31T02:33:23.873Z,60.02
2022-07-31T02:34:29.896Z,60.28
2022-07-31T02:35:33.118Z,60.38
2022-07-31T02:36:36.980Z,60.44
2022-07-31T02:37:43.604Z,60.55
2022-07-31T02:38:47.964Z,60.20
2022-07-31T02:39:54.323Z,61.80
2022-07-31T02:40:59.497Z,60.40
2022-07-31T02:42:05.021Z,60.55
2022-07-31T02:43:10.156Z,60.55
2022-07-31T02:44:14.310Z,60.55
2022-07-31T02:45:18.746Z,60.49
2022-07-31T02:46:22.842Z,60.84
2022-07-31T02:47:26.299Z,60.94
2022-07-31T02:48:30.331Z,60.26
2022-07-31T02:49:35.437Z,60.98
2022-07-31T02:50:40.657Z,60.65
2022-07-31T02:51:43.621Z,61.12
2022-07-31T02:52:47.495Z,61.76
2022-07-31T02:53:50.836Z,60.78
2022-07-31T02:54:54.518Z,60.95
2022-07-31T02:56:00.114Z,60.92
2022-07-31T02:57:03.974Z,61.12
2022-07-31T02:58:07.607Z,60.67
2022-07-31T02:59:10.790Z,60.79
2022-07-31T03:00:23.859Z,61.15
2022-07-31T03:01:28.548Z,60.60
2022-07-31T03:02:36.873Z,60.55
2022-07-31T03:03:35.697Z,60.88
2022-07-31T03:04:37.874Z,61.19
2022-07-31T03:05:40.297Z,60.85
2022-07-31T03:06:42.815Z,60.76
2022-07-31T03:07:45.274Z,61.44
2022-07-31T03:08:47.942Z,60.81
2022-07-31T03:09:51.933Z,61.06
2022-07-31T03:11:01.888Z,60.32
2022-07-31T03:12:05.230Z,61.00
2022-07-31T03:13:10.094Z,61.08
2022-07-31T03:14:15.591Z,60.70
2022-07-31T03:15:21.271Z,60.07
2022-07-31T03:16:25.994Z,60.53
2022-07-31T03:17:38.213Z,60.44
2022-07-31T03:18:34.949Z,60.80
2022-07-31T03:19:37.534Z,60.72
2022-07-31T03:20:43.022Z,60.82
2022-07-31T03:21:46.295Z,60.34
2022-07-31T03:22:50.708Z,61.13
2022-07-31T03:23:55.522Z,61.13
2022-07-31T03:24:59.155Z,60.29
2022-07-31T03:26:03.678Z,59.88
2022-07-31T03:27:06.784Z,60.23
2022-07-31T03:28:10.098Z,60.78
2022-07-31T03:29:42.635Z,60.66
2022-07-31T03:30:18.200Z,60.93
2022-07-31T03:31:21.170Z,60.01
2022-07-31T03:32:23.424Z,60.21
2022-07-31T03:33:25.799Z,60.93
2022-07-31T03:34:28.048Z,60.76
2022-07-31T03:35:30.510Z,60.05
2022-07-31T03:36:33.493Z,60.56
2022-07-31T03:37:35.992Z,60.74
2022-07-31T03:38:42.301Z,60.29
2022-07-31T03:39:43.756Z,60.13
2022-07-31T03:40:47.681Z,60.05
2022-07-31T03:41:51.642Z,60.21
2022-07-31T03:42:55.811Z,59.81
2022-07-31T03:43:59.040Z,60.02
2022-07-31T03:45:03.337Z,59.64
2022-07-31T03:46:07.246Z,59.87
2022-07-31T03:47:09.746Z,60.32
2022-07-31T03:48:12.656Z,59.84
2022-07-31T03:49:15.539Z,59.32
2022-07-31T03:50:19.462Z,59.83
2022-07-31T03:51:22.303Z,59.71
2022-07-31T03:52:25.297Z,60.43
2022-07-31T03:53:28.588Z,60.24
2022-07-31T03:54:30.819Z,59.30
2022-07-31T03:55:38.957Z,59.50
2022-07-31T03:56:45.548Z,59.19
2022-07-31T03:57:49.183Z,59.10
2022-07-31T03:58:52.741Z,59.43
2022-07-31T03:59:57.405Z,59.81
2022-07-31T04:01:00.820Z,59.47
2022-07-31T04:02:10.728Z,59.48
2022-07-31T04:03:16.992Z,59.40
2022-07-31T04:04:26.620Z,59.98
2022-07-31T04:05:34.197Z,59.44
2022-07-31T04:06:37.828Z,59.31
2022-07-31T04:07:40.058Z,59.24
2022-07-31T04:08:42.307Z,59.75
2022-07-31T04:09:44.771Z,59.41
2022-07-31T04:10:48.834Z,59.70
2022-07-31T04:11:52.863Z,59.30
2022-07-31T04:12:55.186Z,59.88
2022-07-31T04:13:57.923Z,59.45
2022-07-31T04:14:59.986Z,59.19
2022-07-31T04:16:03.361Z,59.54
2022-07-31T04:17:06.435Z,60.17
2022-07-31T04:18:09.403Z,59.52
2022-07-31T04:19:16.424Z,59.14
2022-07-31T04:20:20.482Z,59.42
2022-07-31T04:21:22.859Z,58.87
2022-07-31T04:22:26.333Z,59.81
2022-07-31T04:23:32.231Z,59.21
2022-07-31T04:24:53.577Z,59.25
2022-07-31T04:26:20.048Z,59.34
2022-07-31T04:27:19.335Z,59.53
2022-07-31T04:28:22.364Z,58.73
2022-07-31T04:29:24.836Z,58.57
2022-07-31T04:30:29.043Z,59.57
2022-07-31T04:31:31.127Z,58.51
2022-07-31T04:32:35.260Z,58.69
2022-07-31T04:33:48.725Z,58.80
2022-07-31T04:34:44.337Z,58.99
2022-07-31T04:35:47.069Z,58.09
2022-07-31T04:36:50.185Z,59.18
2022-07-31T04:37:52.366Z,59.00
2022-07-31T04:38:55.928Z,57.65
2022-07-31T04:39:58.016Z,57.65
2022-07-31T04:41:00.249Z,58.15
2022-07-31T04:42:03.409Z,58.21
2022-07-31T04:43:07.758Z,57.57
2022-07-31T04:44:10.644Z,57.77
2022-07-31T04:45:17.719Z,58.13
2022-07-31T04:46:20.030Z,58.07
2022-07-31T04:47:22.232Z,57.71
2022-07-31T04:48:26.234Z,57.37
2022-07-31T04:49:30.981Z,57.33
2022-07-31T04:50:35.840Z,57.54
2022-07-31T04:51:38.403Z,56.76
2022-07-31T04:52:41.276Z,57.00
2022-07-31T04:53:46.053Z,56.78
2022-07-31T04:54:48.477Z,57.14
2022-07-31T04:55:50.864Z,57.45
2022-07-31T04:56:53.900Z,56.87
2022-07-31T04:57:56.471Z,57.43
2022-07-31T04:59:01.762Z,56.92
2022-07-31T05:00:06.090Z,57.18
2022-07-31T05:01:08.584Z,57.02
2022-07-31T05:02:12.207Z,56.85
2022-07-31T05:03:15.418Z,56.75
2022-07-31T05:04:18.523Z,56.50
2022-07-31T05:05:20.714Z,56.58
2022-07-31T05:06:32.162Z,56.72
2022-07-31T05:07:34.964Z,56.29
2022-07-31T05:08:39.856Z,56.09
2022-07-31T05:09:42.717Z,55.78
2022-07-31T05:10:45.467Z,55.69
2022-07-31T05:11:48.253Z,55.47
2022-07-31T05:12:50.764Z,55.77
2022-07-31T05:13:55.241Z,54.60
2022-07-31T05:14:59.058Z,54.78
2022-07-31T05:16:01.288Z,54.21
2022-07-31T05:17:03.979Z,54.20
2022-07-31T05:18:08.042Z,54.50
2022-07-31T05:19:23.785Z,54.95
2022-07-31T05:20:44.436Z,55.10
2022-07-31T05:21:58.118Z,54.18
2022-07-31T05:23:16.674Z,54.91
2022-07-31T05:24:22.657Z,54.74
2022-07-31T05:25:33.926Z,54.62
2022-07-31T05:26:37.888Z,54.15
2022-07-31T05:27:41.400Z,54.77
2022-07-31T05:28:44.377Z,54.37
2022-07-31T05:29:48.562Z,54.34
2022-07-31T05:30:51.506Z,55.17
2022-07-31T05:32:00.062Z,54.62
2022-07-31T05:32:57.741Z,54.38
2022-07-31T05:34:00.604Z,54.74
2022-07-31T05:35:03.013Z,54.71
2022-07-31T05:36:06.727Z,55.37
2022-07-31T05:37:09.431Z,54.38
2022-07-31T05:38:12.617Z,53.91
2022-07-31T05:39:16.722Z,53.53
2022-07-31T05:40:33.109Z,54.36
2022-07-31T05:41:52.518Z,53.52
2022-07-31T05:43:11.623Z,54.48
2022-07-31T05:44:32.518Z,53.77
2022-07-31T05:45:35.601Z,52.78
2022-07-31T05:46:39.700Z,53.25
2022-07-31T05:47:42.780Z,53.29
2022-07-31T05:48:45.288Z,53.66
2022-07-31T05:49:47.610Z,52.86
2022-07-31T05:50:51.915Z,52.22
2022-07-31T05:51:55.340Z,52.60
2022-07-31T05:52:58.634Z,53.40
2022-07-31T05:54:19.493Z,52.88
2022-07-31T05:55:41.828Z,52.09
2022-07-31T05:56:55.130Z,51.46
2022-07-31T05:57:59.642Z,51.51
2022-07-31T05:59:02.414Z,51.07
2022-07-31T06:00:05.844Z,51.35
2022-07-31T06:01:13.902Z,51.77
2022-07-31T06:02:17.730Z,50.66
2022-07-31T06:03:38.411Z,51.33
2022-07-31T06:04:42.781Z,50.14
2022-07-31T06:05:45.154Z,50.11
2022-07-31T06:06:47.891Z,51.34
2022-07-31T06:07:51.195Z,50.42
2022-07-31T06:08:55.330Z,52.57
2022-07-31T06:09:57.570Z,51.19
2022-07-31T06:11:00.026Z,49.66
2022-07-31T06:12:03.919Z,50.29
2022-07-31T06:13:06.462Z,50.29
2022-07-31T06:14:08.629Z,51.83
2022-07-31T06:15:35.791Z,50.05
2022-07-31T06:16:35.594Z,50.55
2022-07-31T06:17:43.781Z,51.64
2022-07-31T06:18:44.733Z,49.77
2022-07-31T06:19:47.478Z,50.82
2022-07-31T06:20:51.040Z,51.12
2022-07-31T06:21:54.020Z,50.36
2022-07-31T06:22:58.174Z,49.97
2022-07-31T06:24:02.894Z,50.44
2022-07-31T06:25:11.906Z,50.44
2022-07-31T06:26:17.030Z,50.37
2022-07-31T06:27:33.923Z,50.72
2022-07-31T06:28:48.046Z,51.38
2022-07-31T06:29:41.916Z,50.77
2022-07-31T06:30:35.494Z,51.06
2022-07-31T06:31:38.733Z,49.90
2022-07-31T06:32:41.347Z,51.24
2022-07-31T06:33:43.416Z,50.54
2022-07-31T06:34:47.420Z,49.90
2022-07-31T06:35:50.063Z,50.22
2022-07-31T06:37:00.420Z,49.07
2022-07-31T06:38:02.882Z,50.02
2022-07-31T06:39:06.925Z,49.61
2022-07-31T06:40:15.121Z,50.61
2022-07-31T06:41:38.853Z,48.88
2022-07-31T06:42:43.153Z,49.29
2022-07-31T06:43:47.363Z,50.42
2022-07-31T06:45:09.390Z,48.49
2022-07-31T06:46:31.202Z,47.44
2022-07-31T06:47:52.095Z,47.09
2022-07-31T06:48:59.062Z,48.30
2022-07-31T06:50:01.328Z,47.25
2022-07-31T06:52:14.144Z,47.08
2022-07-31T06:53:16.498Z,47.65
2022-07-31T06:54:19.074Z,48.78
2022-07-31T06:55:23.046Z,47.88
2022-07-31T06:56:28.552Z,47.42
2022-07-31T06:57:31.086Z,48.75
2022-07-31T06:58:33.423Z,47.48
2022-07-31T06:59:40.229Z,47.32
2022-07-31T07:00:42.759Z,47.19
2022-07-31T07:01:45.150Z,46.49
2022-07-31T07:02:48.692Z,47.77
2022-07-31T07:03:51.079Z,47.80
2022-07-31T07:05:05.241Z,46.90
2022-07-31T07:05:58.060Z,47.36
2022-07-31T07:07:00.725Z,46.38
2022-07-31T07:08:03.427Z,47.44
2022-07-31T07:09:06.272Z,46.21
2022-07-31T07:10:09.046Z,48.71
2022-07-31T07:11:31.911Z,46.59
2022-07-31T07:12:34.775Z,48.18
2022-07-31T07:13:45.829Z,48.38
2022-07-31T07:14:41.935Z,46.27
2022-07-31T07:15:43.998Z,45.44
2022-07-31T07:16:47.954Z,47.33
2022-07-31T07:17:51.342Z,48.34
2022-07-31T07:18:55.976Z,47.30
2022-07-31T07:19:59.283Z,45.19
2022-07-31T07:21:01.744Z,47.62
2022-07-31T07:22:05.808Z,46.57
2022-07-31T07:23:08.407Z,46.58
2022-07-31T07:24:15.389Z,47.94
2022-07-31T07:25:22.458Z,45.68
2022-07-31T07:26:26.563Z,45.56
2022-07-31T07:27:29.503Z,44.81
2022-07-31T07:28:31.711Z,46.92
2022-07-31T07:29:36.043Z,45.02
2022-07-31T07:30:39.303Z,45.82
2022-07-31T07:31:41.752Z,45.67
2022-07-31T07:32:43.840Z,45.25
2022-07-31T07:33:47.110Z,46.86
2022-07-31T07:34:59.967Z,47.43
2022-07-31T07:35:57.648Z,46.42
2022-07-31T07:37:00.625Z,45.22
2022-07-31T07:38:05.275Z,45.98
2022-07-31T07:39:09.263Z,44.79
2022-07-31T07:40:12.323Z,45.41
2022-07-31T07:41:15.061Z,46.07
2022-07-31T07:42:19.173Z,44.68
2022-07-31T07:43:21.352Z,43.23
2022-07-31T07:44:24.678Z,44.33
2022-07-31T07:45:27.619Z,45.14
2022-07-31T07:46:31.074Z,43.71
2022-07-31T07:47:53.869Z,43.12
2022-07-31T07:48:40.943Z,43.61
2022-07-31T07:49:45.058Z,42.52
2022-07-31T07:50:49.243Z,45.55
2022-07-31T07:52:00.730Z,41.43
2022-07-31T07:53:18.093Z,43.69
2022-07-31T07:54:39.750Z,42.06
2022-07-31T07:55:48.590Z,43.27
2022-07-31T07:57:19.759Z,42.17
2022-07-31T07:58:38.883Z,42.63
2022-07-31T08:00:54.069Z,42.46
2022-07-31T08:01:57.842Z,44.40
2022-07-31T08:03:02.902Z,42.77
2022-07-31T08:04:12.176Z,44.08
2022-07-31T08:05:16.760Z,42.46
2022-07-31T08:06:20.755Z,41.86
2022-07-31T08:07:42.263Z,42.47
2022-07-31T08:08:36.080Z,41.33
2022-07-31T08:09:56.214Z,40.66
2022-07-31T08:11:06.590Z,41.81
2022-07-31T08:12:20.113Z,41.38
2022-07-31T08:13:33.405Z,41.59
2022-07-31T08:14:53.986Z,42.20
2022-07-31T08:16:07.889Z,43.08
2022-07-31T08:17:13.067Z,41.46
2022-07-31T08:18:16.050Z,42.56
2022-07-31T08:19:19.177Z,40.86
2022-07-31T08:20:21.855Z,41.19
2022-07-31T08:21:26.109Z,42.56
2022-07-31T08:22:28.189Z,40.02
2022-07-31T08:23:30.549Z,43.15
2022-07-31T08:24:33.419Z,40.32
2022-07-31T08:25:35.973Z,42.15
2022-07-31T08:26:41.419Z,39.98
2022-07-31T08:27:43.691Z,39.54
2022-07-31T08:28:49.717Z,40.52
2022-07-31T08:29:55.935Z,39.70
2022-07-31T08:31:00.561Z,41.08
2022-07-31T08:32:03.338Z,43.04
2022-07-31T08:33:16.644Z,39.98
2022-07-31T08:34:31.246Z,41.71
2022-07-31T08:35:25.044Z,42.02
2022-07-31T08:36:28.373Z,39.90
2022-07-31T08:38:02.770Z,40.48
2022-07-31T08:38:37.514Z,41.75
2022-07-31T08:39:59.215Z,42.02
2022-07-31T08:41:03.002Z,39.84
2022-07-31T08:42:09.260Z,41.36
2022-07-31T08:44:00.300Z,42.68
2022-07-31T08:44:18.568Z,41.40
2022-07-31T08:45:22.811Z,42.19
2022-07-31T08:46:32.786Z,40.75
2022-07-31T08:47:35.501Z,41.78
2022-07-31T08:48:40.963Z,42.21
2022-07-31T08:49:45.704Z,42.61
2022-07-31T08:50:53.772Z,41.57
2022-07-31T08:52:24.625Z,40.12
2022-07-31T08:53:35.755Z,40.85
2022-07-31T08:54:44.257Z,39.32
2022-07-31T08:55:55.106Z,40.10
2022-07-31T08:58:11.578Z,40.76
2022-07-31T08:59:14.292Z,40.04
2022-07-31T09:00:18.596Z,40.26
2022-07-31T09:01:22.956Z,40.75
2022-07-31T09:02:25.352Z,38.54
2022-07-31T09:03:46.088Z,39.27
2022-07-31T09:04:52.596Z,38.64
2022-07-31T09:05:54.468Z,39.71
2022-07-31T09:06:57.609Z,40.21
2022-07-31T09:08:00.010Z,39.35
2022-07-31T09:09:04.750Z,39.17
2022-07-31T09:10:26.551Z,41.50
2022-07-31T09:13:13.164Z,41.30
2022-07-31T09:14:28.150Z,40.55
2022-07-31T09:15:31.063Z,42.83
2022-07-31T09:16:44.209Z,38.90
2022-07-31T09:17:48.723Z,41.73
2022-07-31T09:19:02.751Z,40.25
2022-07-31T09:20:11.252Z,39.16
2022-07-31T09:21:14.021Z,39.38
2022-07-31T09:22:24.388Z,40.84
2022-07-31T09:23:27.887Z,41.49
2022-07-31T09:24:39.438Z,41.19
2022-07-31T09:25:37.896Z,41.05
2022-07-31T09:26:41.499Z,39.76
2022-07-31T09:27:46.422Z,38.84
2022-07-31T09:28:48.806Z,40.32
2022-07-31T09:29:51.267Z,41.84
2022-07-31T09:31:03.055Z,39.95
2022-07-31T09:32:16.495Z,39.66
2022-07-31T09:33:40.279Z,41.16
2022-07-31T09:34:46.066Z,38.86
2022-07-31T09:35:52.267Z,39.33
2022-07-31T09:36:54.857Z,40.17
2022-07-31T09:38:17.235Z,39.78
2022-07-31T09:39:35.944Z,38.73
2022-07-31T09:40:57.120Z,38.36
2022-07-31T09:42:16.289Z,39.56
2022-07-31T09:43:34.357Z,40.36
2022-07-31T09:44:41.154Z,38.38
2022-07-31T09:45:48.193Z,39.20
2022-07-31T09:46:50.967Z,39.73
2022-07-31T09:48:07.568Z,40.15
2022-07-31T09:49:10.121Z,38.75
2022-07-31T09:50:16.445Z,39.09
2022-07-31T09:51:18.996Z,38.29
2022-07-31T09:52:22.330Z,37.48
2022-07-31T09:53:25.502Z,37.86
2022-07-31T09:54:31.608Z,38.53
2022-07-31T09:55:36.595Z,38.04
2022-07-31T09:56:40.439Z,37.86
2022-07-31T09:57:54.097Z,37.86
2022-07-31T09:58:57.900Z,38.92
2022-07-31T10:00:00.172Z,38.05
2022-07-31T10:01:03.684Z,37.86
2022-07-31T10:02:08.360Z,36.96
2022-07-31T10:03:16.605Z,38.85
2022-07-31T10:04:21.607Z,38.86
2022-07-31T10:05:26.593Z,39.70
2022-07-31T10:06:33.919Z,37.57
2022-07-31T10:07:39.269Z,38.29
2022-07-31T10:08:49.707Z,37.54
2022-07-31T10:10:06.079Z,37.72
2022-07-31T10:11:16.427Z,36.97
2022-07-31T10:12:19.190Z,36.17
2022-07-31T10:13:23.394Z,37.17
2022-07-31T10:14:33.479Z,37.25
2022-07-31T10:15:40.202Z,37.65
2022-07-31T10:17:03.690Z,38.08
2022-07-31T10:18:18.982Z,37.25
2022-07-31T10:19:32.885Z,36.91
2022-07-31T10:20:55.264Z,36.05
2022-07-31T10:22:06.588Z,38.20
2022-07-31T10:23:21.363Z,35.46
2022-07-31T10:24:28.546Z,36.63
2022-07-31T10:25:35.975Z,35.59
2022-07-31T10:26:59.809Z,36.20
2022-07-31T10:27:45.512Z,37.08
2022-07-31T10:28:49.397Z,36.55
2022-07-31T10:29:53.525Z,36.16
2022-07-31T10:30:57.016Z,37.75
2022-07-31T10:32:00.278Z,36.80
2022-07-31T10:33:04.628Z,37.75
2022-07-31T10:34:17.799Z,36.03
2022-07-31T10:35:55.700Z,37.71
2022-07-31T10:37:17.129Z,36.13
2022-07-31T10:38:47.224Z,36.65
2022-07-31T10:41:47.430Z,38.67
2022-07-31T10:43:13.137Z,36.74
2022-07-31T10:44:29.539Z,37.92
2022-07-31T10:45:50.955Z,38.00
2022-07-31T10:46:55.575Z,35.01
2022-07-31T10:48:01.638Z,35.71
2022-07-31T10:49:39.620Z,38.21
2022-07-31T10:51:02.669Z,36.91
2022-07-31T10:52:07.172Z,36.78
2022-07-31T10:53:18.445Z,34.99
2022-07-31T10:54:31.687Z,36.44
2022-07-31T10:55:38.559Z,35.94
2022-07-31T10:56:46.225Z,35.24
2022-07-31T10:58:10.587Z,36.95
2022-07-31T10:59:14.578Z,35.91
2022-07-31T11:00:34.665Z,37.03
2022-07-31T11:01:55.289Z,36.35
2022-07-31T11:03:19.530Z,36.83
2022-07-31T11:04:40.494Z,35.14
2022-07-31T11:06:00.956Z,34.81
2022-07-31T11:07:15.996Z,35.57
2022-07-31T11:08:42.412Z,35.48
2022-07-31T11:09:50.616Z,33.70
2022-07-31T11:11:13.976Z,34.70
2022-07-31T11:12:21.041Z,35.10
2022-07-31T11:13:49.732Z,35.79
2022-07-31T11:15:22.261Z,35.80
2022-07-31T11:16:30.062Z,35.83
2022-07-31T11:18:20.992Z,35.05
2022-07-31T11:19:04.190Z,36.25
2022-07-31T11:20:30.349Z,33.63
2022-07-31T11:21:41.272Z,36.16
2022-07-31T11:23:01.782Z,36.21
2022-07-31T11:24:18.842Z,34.46
2022-07-31T11:25:21.584Z,32.91
2022-07-31T11:26:33.561Z,34.63
2022-07-31T11:27:32.606Z,34.02
2022-07-31T11:28:35.480Z,33.68
2022-07-31T11:29:58.993Z,33.00
2022-07-31T11:30:50.283Z,35.12
2022-07-31T11:31:52.743Z,33.71
2022-07-31T11:32:54.860Z,35.54
2022-07-31T11:34:00.752Z,35.01
2022-07-31T11:35:04.121Z,34.03
2022-07-31T11:36:10.541Z,33.61
2022-07-31T11:37:30.579Z,33.70
2022-07-31T11:38:40.181Z,33.19
2022-07-31T11:39:43.873Z,33.98
2022-07-31T11:40:50.939Z,32.40
2022-07-31T11:41:55.837Z,33.54
2022-07-31T11:43:25.759Z,32.62
2022-07-31T11:44:03.503Z,33.73
2022-07-31T11:45:10.980Z,32.31
2022-07-31T11:46:14.274Z,32.93
2022-07-31T11:48:09.418Z,32.09
2022-07-31T11:48:22.472Z,34.26
2022-07-31T11:49:39.218Z,33.59
2022-07-31T11:50:42.866Z,32.18
2022-07-31T11:51:47.615Z,32.49
2022-07-31T11:52:49.786Z,32.20
2022-07-31T11:53:57.438Z,31.88
2022-07-31T11:55:09.033Z,30.49
2022-07-31T11:56:14.343Z,32.39
2022-07-31T11:57:16.570Z,31.74
2022-07-31T11:58:20.731Z,32.23
2022-07-31T11:59:45.660Z,31.56
2022-07-31T12:00:50.091Z,31.86
2022-07-31T12:01:54.155Z,32.45
2022-07-31T12:02:56.907Z,32.20
2022-07-31T12:04:07.551Z,31.45
2022-07-31T12:05:03.877Z,31.36
2022-07-31T12:06:08.516Z,29.88
2022-07-31T12:07:12.523Z,30.93
2022-07-31T12:08:15.740Z,30.57
2022-07-31T12:10:02.261Z,29.64
2022-07-31T12:10:23.901Z,31.09
2022-07-31T12:11:26.549Z,29.71
2022-07-31T12:12:28.880Z,31.67
2022-07-31T12:13:32.505Z,30.82
2022-07-31T12:14:37.630Z,30.26
2022-07-31T12:15:39.680Z,30.13
2022-07-31T12:16:43.172Z,30.26
2022-07-31T12:17:46.765Z,30.82
2022-07-31T12:18:54.012Z,31.52
2022-07-31T12:19:59.886Z,31.07
2022-07-31T12:21:03.980Z,31.04
2022-07-31T12:22:14.241Z,30.82
2022-07-31T12:23:38.412Z,30.57
2022-07-31T12:24:21.420Z,30.28
2022-07-31T12:25:23.464Z,30.17
2022-07-31T12:26:29.654Z,30.77
2022-07-31T12:27:31.968Z,30.24
2022-07-31T12:28:34.050Z,29.88
2022-07-31T12:29:38.151Z,30.12
2022-07-31T12:30:41.639Z,29.80
2022-07-31T12:31:53.175Z,28.88
2022-07-31T12:33:07.038Z,29.18
2022-07-31T12:34:09.126Z,30.02
2022-07-31T12:35:15.217Z,28.97
2022-07-31T12:36:18.419Z,29.26
2022-07-31T12:37:20.481Z,30.13
2022-07-31T12:38:40.810Z,29.11
2022-07-31T12:39:47.462Z,29.00
2022-07-31T12:40:36.682Z,28.96
2022-07-31T12:41:42.831Z,29.01
2022-07-31T12:42:44.983Z,29.25
2022-07-31T12:43:51.539Z,29.28
2022-07-31T12:44:53.278Z,28.88
2022-07-31T12:45:55.299Z,29.82
2022-07-31T12:46:57.820Z,28.76
2022-07-31T12:48:00.188Z,28.65
2022-07-31T12:49:04.260Z,28.41
2022-07-31T12:50:07.491Z,29.15
2022-07-31T12:51:09.620Z,28.46
2022-07-31T12:52:11.745Z,29.37
2022-07-31T12:53:13.934Z,29.54
2022-07-31T12:54:16.961Z,28.91
2022-07-31T12:55:19.774Z,28.94
2022-07-31T12:56:24.089Z,29.60
2022-07-31T12:57:34.125Z,28.98
2022-07-31T12:58:37.426Z,30.08
2022-07-31T12:59:40.226Z,30.11
2022-07-31T13:00:42.517Z,30.06
2022-07-31T13:01:45.705Z,29.76
2022-07-31T13:02:48.050Z,29.35
2022-07-31T13:03:50.761Z,29.77
2022-07-31T13:04:53.855Z,29.65
2022-07-31T13:05:55.991Z,29.65
2022-07-31T13:06:58.664Z,30.75
2022-07-31T13:08:00.720Z,29.11
2022-07-31T13:09:04.415Z,29.34
2022-07-31T13:10:21.702Z,29.31
2022-07-31T13:11:12.658Z,29.36
2022-07-31T13:12:15.739Z,29.44
2022-07-31T13:13:20.116Z,28.42
2022-07-31T13:14:22.767Z,29.32
2022-07-31T13:15:25.933Z,29.34
2022-07-31T13:16:29.857Z,28.48
2022-07-31T13:17:31.936Z,29.40
2022-07-31T13:18:35.399Z,28.62
2022-07-31T13:19:38.288Z,29.93
2022-07-31T13:20:40.583Z,28.34
2022-07-31T13:21:48.257Z,28.90
2022-07-31T13:22:47.514Z,29.14
2022-07-31T13:23:54.367Z,27.89
2022-07-31T13:24:55.860Z,27.51
2022-07-31T13:25:59.227Z,27.76
2022-07-31T13:27:01.680Z,28.02
2022-07-31T13:28:04.203Z,26.98
2022-07-31T13:29:06.807Z,27.65
2022-07-31T13:30:12.375Z,28.28
2022-07-31T13:31:14.593Z,26.73
2022-07-31T13:32:16.563Z,27.18
2022-07-31T13:33:18.499Z,27.68
2022-07-31T13:34:20.558Z,28.34
2022-07-31T13:35:27.457Z,27.86
2022-07-31T13:36:30.782Z,28.00
2022-07-31T13:37:32.661Z,27.78
2022-07-31T13:38:36.964Z,26.97
2022-07-31T13:39:39.026Z,27.11
2022-07-31T13:40:42.821Z,27.42
2022-07-31T13:41:44.963Z,27.18
2022-07-31T13:42:47.142Z,26.80
2022-07-31T13:44:00.458Z,26.99
2022-07-31T13:44:54.193Z,27.30
2022-07-31T13:45:57.543Z,27.81
2022-07-31T13:47:01.440Z,27.72
2022-07-31T13:48:09.254Z,27.40
2022-07-31T13:49:09.738Z,25.99
2022-07-31T13:50:14.071Z,26.81
2022-07-31T13:51:16.789Z,25.93
2022-07-31T13:52:21.727Z,25.99
2022-07-31T13:53:25.094Z,26.65
2022-07-31T13:54:28.924Z,26.04
2022-07-31T13:55:31.247Z,25.95
2022-07-31T13:56:42.194Z,25.03
2022-07-31T13:57:40.363Z,25.03
2022-07-31T13:58:42.548Z,26.43
2022-07-31T13:59:44.581Z,26.42
2022-07-31T14:00:47.374Z,25.49
2022-07-31T14:02:03.087Z,25.74
2022-07-31T14:02:54.029Z,26.61
2022-07-31T14:03:57.124Z,25.64
2022-07-31T14:05:00.352Z,26.07
2022-07-31T14:06:03.577Z,26.19
2022-07-31T14:07:07.503Z,25.90
2022-07-31T14:08:33.021Z,26.09
2022-07-31T14:09:16.028Z,26.52
2022-07-31T14:10:20.936Z,27.43
2022-07-31T14:11:22.537Z,26.67
2022-07-31T14:12:25.734Z,26.35
2022-07-31T14:13:28.952Z,26.72
2022-07-31T14:14:31.178Z,26.03
2022-07-31T14:15:34.276Z,25.33
2022-07-31T14:16:36.512Z,25.23
2022-07-31T14:17:39.531Z,25.41
2022-07-31T14:18:42.564Z,25.45
2022-07-31T14:19:45.758Z,25.27